sensor_id;sensor_type;location;lat;lon;timestamp;temperature;humidity
37570;DHT22;57786;54.376;10.232;2022-09-03T00:01:28;23.60;94.90
37570;DHT22;57786;54.376;10.232;2022-09-03T00:04:03;23.50;94.80
37570;DHT22;57786;54.376;10.232;2022-09-03T00:06:38;23.50;94.80
37570;DHT22;57786;54.376;10.232;2022-09-03T00:09:15;23.50;94.80
37570;DHT22;57786;54.376;10.232;2022-09-03T00:11:51;23.60;94.80
37570;DHT22;57786;54.376;10.232;2022-09-03T00:15:09;23.50;94.80
37570;DHT22;57786;54.376;10.232;2022-09-03T00:17:31;23.50;94.80
37570;DHT22;57786;54.376;10.232;2022-09-03T00:20:15;23.50;94.80
37570;DHT22;57786;54.376;10.232;2022-09-03T00:22:45;23.50;94.80
37570;DHT22;57786;54.376;10.232;2022-09-03T00:25:16;23.50;94.80
37570;DHT22;57786;54.376;10.232;2022-09-03T00:27:44;23.50;94.80
37570;DHT22;57786;54.376;10.232;2022-09-03T00:30:14;23.50;94.80
37570;DHT22;57786;54.376;10.232;2022-09-03T00:33:23;23.70;94.90
37570;DHT22;57786;54.376;10.232;2022-09-03T00:35:56;23.50;95.10
37570;DHT22;57786;54.376;10.232;2022-09-03T00:38:22;23.50;94.80
37570;DHT22;57786;54.376;10.232;2022-09-03T00:43:48;23.50;94.80
37570;DHT22;57786;54.376;10.232;2022-09-03T00:46:22;23.60;94.90
37570;DHT22;57786;54.376;10.232;2022-09-03T00:54:19;23.50;94.80
37570;DHT22;57786;54.376;10.232;2022-09-03T00:59:55;23.60;94.90
37570;DHT22;57786;54.376;10.232;2022-09-03T01:16:27;23.70;94.90
37570;DHT22;57786;54.376;10.232;2022-09-03T01:37:45;23.50;94.90
37570;DHT22;57786;54.376;10.232;2022-09-03T01:46:13;23.50;94.90
37570;DHT22;57786;54.376;10.232;2022-09-03T01:48:44;23.50;94.90
37570;DHT22;57786;54.376;10.232;2022-09-03T01:51:23;23.50;94.90
37570;DHT22;57786;54.376;10.232;2022-09-03T01:59:58;23.50;94.90
37570;DHT22;57786;54.376;10.232;2022-09-03T02:02:27;23.60;94.90
37570;DHT22;57786;54.376;10.232;2022-09-03T02:10:25;23.50;94.90
37570;DHT22;57786;54.376;10.232;2022-09-03T02:15:52;23.60;94.70
37570;DHT22;57786;54.376;10.232;2022-09-03T02:18:33;23.50;94.90
37570;DHT22;57786;54.376;10.232;2022-09-03T02:21:00;23.50;94.90
37570;DHT22;57786;54.376;10.232;2022-09-03T02:23:26;23.60;94.90
37570;DHT22;57786;54.376;10.232;2022-09-03T02:25:59;23.60;94.90
37570;DHT22;57786;54.376;10.232;2022-09-03T02:28:27;23.30;94.80
37570;DHT22;57786;54.376;10.232;2022-09-03T02:30:53;23.60;94.90
37570;DHT22;57786;54.376;10.232;2022-09-03T02:33:19;23.60;94.90
37570;DHT22;57786;54.376;10.232;2022-09-03T02:35:45;23.50;94.90
37570;DHT22;57786;54.376;10.232;2022-09-03T02:38:17;23.50;94.90
37570;DHT22;57786;54.376;10.232;2022-09-03T02:40:44;23.60;94.90
37570;DHT22;57786;54.376;10.232;2022-09-03T02:43:17;23.60;94.90
37570;DHT22;57786;54.376;10.232;2022-09-03T02:45:47;23.50;94.90
37570;DHT22;57786;54.376;10.232;2022-09-03T02:48:20;23.60;94.90
37570;DHT22;57786;54.376;10.232;2022-09-03T02:50:47;23.50;94.90
37570;DHT22;57786;54.376;10.232;2022-09-03T02:53:12;23.50;94.90
37570;DHT22;57786;54.376;10.232;2022-09-03T02:55:38;23.60;94.90
37570;DHT22;57786;54.376;10.232;2022-09-03T02:58:03;23.50;94.90
37570;DHT22;57786;54.376;10.232;2022-09-03T03:00:31;23.60;94.90
37570;DHT22;57786;54.376;10.232;2022-09-03T03:02:57;23.50;94.90
37570;DHT22;57786;54.376;10.232;2022-09-03T03:08:11;23.50;95.00
37570;DHT22;57786;54.376;10.232;2022-09-03T03:10:42;23.50;94.90
37570;DHT22;57786;54.376;10.232;2022-09-03T03:13:12;23.50;94.90
37570;DHT22;57786;54.376;10.232;2022-09-03T03:15:38;23.50;95.00
37570;DHT22;57786;54.376;10.232;2022-09-03T03:18:04;23.50;95.00
37570;DHT22;57786;54.376;10.232;2022-09-03T03:20:29;23.60;95.00
37570;DHT22;57786;54.376;10.232;2022-09-03T03:22:55;23.50;95.00
37570;DHT22;57786;54.376;10.232;2022-09-03T03:25:21;23.50;94.70
37570;DHT22;57786;54.376;10.232;2022-09-03T03:27:46;23.50;95.00
37570;DHT22;57786;54.376;10.232;2022-09-03T03:30:12;23.50;95.00
37570;DHT22;57786;54.376;10.232;2022-09-03T03:32:38;23.50;95.00
37570;DHT22;57786;54.376;10.232;2022-09-03T03:35:05;23.60;95.00
37570;DHT22;57786;54.376;10.232;2022-09-03T03:37:32;23.50;95.00
37570;DHT22;57786;54.376;10.232;2022-09-03T03:39:58;23.50;94.90
37570;DHT22;57786;54.376;10.232;2022-09-03T03:42:23;23.50;94.90
37570;DHT22;57786;54.376;10.232;2022-09-03T03:44:49;23.50;94.90
37570;DHT22;57786;54.376;10.232;2022-09-03T03:47:15;23.50;94.90
37570;DHT22;57786;54.376;10.232;2022-09-03T03:49:44;23.60;94.90
37570;DHT22;57786;54.376;10.232;2022-09-03T03:52:09;23.60;94.90
37570;DHT22;57786;54.376;10.232;2022-09-03T03:54:35;23.50;94.90
37570;DHT22;57786;54.376;10.232;2022-09-03T03:57:00;23.50;94.90
37570;DHT22;57786;54.376;10.232;2022-09-03T03:59:26;23.60;95.20
37570;DHT22;57786;54.376;10.232;2022-09-03T04:01:55;23.50;94.90
37570;DHT22;57786;54.376;10.232;2022-09-03T04:04:20;23.60;94.90
37570;DHT22;57786;54.376;10.232;2022-09-03T04:06:46;23.60;94.90
37570;DHT22;57786;54.376;10.232;2022-09-03T04:09:11;23.50;94.90
37570;DHT22;57786;54.376;10.232;2022-09-03T04:11:37;23.60;94.90
37570;DHT22;57786;54.376;10.232;2022-09-03T04:14:03;23.60;94.90
37570;DHT22;57786;54.376;10.232;2022-09-03T04:16:29;23.50;94.90
37570;DHT22;57786;54.376;10.232;2022-09-03T04:18:55;23.60;94.90
37570;DHT22;57786;54.376;10.232;2022-09-03T04:21:23;23.60;94.90
37570;DHT22;57786;54.376;10.232;2022-09-03T04:23:50;23.60;94.90
37570;DHT22;57786;54.376;10.232;2022-09-03T04:26:19;23.40;94.80
37570;DHT22;57786;54.376;10.232;2022-09-03T04:28:45;23.30;94.80
37570;DHT22;57786;54.376;10.232;2022-09-03T04:31:13;23.50;94.90
37570;DHT22;57786;54.376;10.232;2022-09-03T04:33:39;23.60;94.90
37570;DHT22;57786;54.376;10.232;2022-09-03T04:38:40;23.50;94.90
37570;DHT22;57786;54.376;10.232;2022-09-03T04:41:08;23.60;94.90
37570;DHT22;57786;54.376;10.232;2022-09-03T04:43:34;23.60;94.90
37570;DHT22;57786;54.376;10.232;2022-09-03T04:46:02;23.50;95.10
37570;DHT22;57786;54.376;10.232;2022-09-03T04:48:29;23.60;94.90
37570;DHT22;57786;54.376;10.232;2022-09-03T04:51:02;23.60;94.90
37570;DHT22;57786;54.376;10.232;2022-09-03T04:53:29;23.50;94.90
37570;DHT22;57786;54.376;10.232;2022-09-03T04:55:55;23.50;94.90
37570;DHT22;57786;54.376;10.232;2022-09-03T04:58:20;23.60;94.90
37570;DHT22;57786;54.376;10.232;2022-09-03T05:00:46;23.50;94.90
37570;DHT22;57786;54.376;10.232;2022-09-03T05:03:11;23.50;94.90
37570;DHT22;57786;54.376;10.232;2022-09-03T05:05:37;23.50;94.90
37570;DHT22;57786;54.376;10.232;2022-09-03T05:08:03;23.50;94.90
37570;DHT22;57786;54.376;10.232;2022-09-03T05:10:30;23.50;94.90
37570;DHT22;57786;54.376;10.232;2022-09-03T05:13:01;23.50;94.90
37570;DHT22;57786;54.376;10.232;2022-09-03T05:15:28;23.50;94.90
37570;DHT22;57786;54.376;10.232;2022-09-03T05:17:58;23.50;94.90
37570;DHT22;57786;54.376;10.232;2022-09-03T05:20:24;23.50;94.90
37570;DHT22;57786;54.376;10.232;2022-09-03T05:22:51;23.50;94.90
37570;DHT22;57786;54.376;10.232;2022-09-03T05:25:17;23.50;94.80
37570;DHT22;57786;54.376;10.232;2022-09-03T05:27:42;23.50;94.90
37570;DHT22;57786;54.376;10.232;2022-09-03T05:30:08;23.50;94.80
37570;DHT22;57786;54.376;10.232;2022-09-03T05:32:34;23.50;94.80
37570;DHT22;57786;54.376;10.232;2022-09-03T05:35:00;23.50;94.80
37570;DHT22;57786;54.376;10.232;2022-09-03T05:37:25;23.50;94.80
37570;DHT22;57786;54.376;10.232;2022-09-03T05:39:52;23.50;94.80
37570;DHT22;57786;54.376;10.232;2022-09-03T05:42:18;23.50;94.80
37570;DHT22;57786;54.376;10.232;2022-09-03T05:44:43;23.50;94.80
37570;DHT22;57786;54.376;10.232;2022-09-03T05:47:09;23.60;94.80
37570;DHT22;57786;54.376;10.232;2022-09-03T05:49:36;23.50;94.80
37570;DHT22;57786;54.376;10.232;2022-09-03T05:52:01;23.50;94.70
37570;DHT22;57786;54.376;10.232;2022-09-03T05:54:27;23.50;94.70
37570;DHT22;57786;54.376;10.232;2022-09-03T05:56:53;23.50;94.70
37570;DHT22;57786;54.376;10.232;2022-09-03T05:59:19;23.50;94.70
37570;DHT22;57786;54.376;10.232;2022-09-03T06:01:45;23.50;94.70
37570;DHT22;57786;54.376;10.232;2022-09-03T06:04:15;23.60;94.70
37570;DHT22;57786;54.376;10.232;2022-09-03T06:06:43;23.50;94.60
37570;DHT22;57786;54.376;10.232;2022-09-03T06:09:11;23.50;94.60
37570;DHT22;57786;54.376;10.232;2022-09-03T06:11:39;23.60;94.70
37570;DHT22;57786;54.376;10.232;2022-09-03T06:14:06;23.50;94.70
37570;DHT22;57786;54.376;10.232;2022-09-03T06:16:35;23.50;94.70
37570;DHT22;57786;54.376;10.232;2022-09-03T06:19:03;23.50;94.90
37570;DHT22;57786;54.376;10.232;2022-09-03T06:21:31;23.50;94.60
37570;DHT22;57786;54.376;10.232;2022-09-03T06:23:57;23.50;94.70
37570;DHT22;57786;54.376;10.232;2022-09-03T06:26:24;23.40;94.70
37570;DHT22;57786;54.376;10.232;2022-09-03T06:28:50;23.40;94.70
37570;DHT22;57786;54.376;10.232;2022-09-03T06:31:20;23.40;94.80
37570;DHT22;57786;54.376;10.232;2022-09-03T06:33:46;23.50;94.70
37570;DHT22;57786;54.376;10.232;2022-09-03T06:36:15;23.40;94.60
37570;DHT22;57786;54.376;10.232;2022-09-03T06:38:42;23.50;94.70
37570;DHT22;57786;54.376;10.232;2022-09-03T06:41:10;23.40;94.60
37570;DHT22;57786;54.376;10.232;2022-09-03T06:43:38;23.40;94.60
37570;DHT22;57786;54.376;10.232;2022-09-03T06:46:13;23.50;94.70
37570;DHT22;57786;54.376;10.232;2022-09-03T06:48:39;23.40;94.70
37570;DHT22;57786;54.376;10.232;2022-09-03T06:51:08;23.50;94.70
37570;DHT22;57786;54.376;10.232;2022-09-03T06:53:36;23.50;94.70
37570;DHT22;57786;54.376;10.232;2022-09-03T06:56:08;23.50;94.70
37570;DHT22;57786;54.376;10.232;2022-09-03T06:58:36;23.50;94.70
37570;DHT22;57786;54.376;10.232;2022-09-03T07:01:07;23.50;94.70
37570;DHT22;57786;54.376;10.232;2022-09-03T07:03:38;23.70;94.70
37570;DHT22;57786;54.376;10.232;2022-09-03T07:06:12;23.50;94.70
37570;DHT22;57786;54.376;10.232;2022-09-03T07:08:39;23.50;94.70
37570;DHT22;57786;54.376;10.232;2022-09-03T07:11:06;23.50;94.70
37570;DHT22;57786;54.376;10.232;2022-09-03T07:13:36;23.50;94.70
37570;DHT22;57786;54.376;10.232;2022-09-03T07:16:07;23.50;94.70
37570;DHT22;57786;54.376;10.232;2022-09-03T07:18:34;23.50;94.70
37570;DHT22;57786;54.376;10.232;2022-09-03T07:21:05;23.50;94.70
37570;DHT22;57786;54.376;10.232;2022-09-03T07:23:31;23.40;94.70
37570;DHT22;57786;54.376;10.232;2022-09-03T07:26:03;23.20;94.60
37570;DHT22;57786;54.376;10.232;2022-09-03T07:28:29;23.40;94.70
37570;DHT22;57786;54.376;10.232;2022-09-03T07:31:09;23.60;94.80
37570;DHT22;57786;54.376;10.232;2022-09-03T07:33:37;23.40;94.70
37570;DHT22;57786;54.376;10.232;2022-09-03T07:36:07;23.40;94.60
37570;DHT22;57786;54.376;10.232;2022-09-03T07:38:34;23.40;94.60
37570;DHT22;57786;54.376;10.232;2022-09-03T07:41:03;23.40;94.60
37570;DHT22;57786;54.376;10.232;2022-09-03T07:43:39;23.40;94.60
37570;DHT22;57786;54.376;10.232;2022-09-03T07:46:15;23.50;94.60
37570;DHT22;57786;54.376;10.232;2022-09-03T07:48:48;23.40;94.60
37570;DHT22;57786;54.376;10.232;2022-09-03T07:51:15;23.40;94.60
37570;DHT22;57786;54.376;10.232;2022-09-03T07:53:42;23.40;94.60
37570;DHT22;57786;54.376;10.232;2022-09-03T07:56:09;23.40;94.60
37570;DHT22;57786;54.376;10.232;2022-09-03T07:58:36;23.40;94.60
37570;DHT22;57786;54.376;10.232;2022-09-03T08:01:07;23.40;94.70
37570;DHT22;57786;54.376;10.232;2022-09-03T08:03:34;23.40;94.70
37570;DHT22;57786;54.376;10.232;2022-09-03T08:06:01;23.40;94.70
37570;DHT22;57786;54.376;10.232;2022-09-03T08:08:28;23.40;94.80
37570;DHT22;57786;54.376;10.232;2022-09-03T08:10:54;23.40;94.80
37570;DHT22;57786;54.376;10.232;2022-09-03T08:13:19;23.40;94.80
37570;DHT22;57786;54.376;10.232;2022-09-03T08:15:55;23.50;94.80
37570;DHT22;57786;54.376;10.232;2022-09-03T08:18:21;23.50;94.90
37570;DHT22;57786;54.376;10.232;2022-09-03T08:20:47;23.50;94.90
37570;DHT22;57786;54.376;10.232;2022-09-03T08:23:13;23.20;94.70
37570;DHT22;57786;54.376;10.232;2022-09-03T08:25:39;23.50;94.80
37570;DHT22;57786;54.376;10.232;2022-09-03T08:28:04;23.50;94.80
37570;DHT22;57786;54.376;10.232;2022-09-03T08:30:30;23.50;94.80
37570;DHT22;57786;54.376;10.232;2022-09-03T08:32:56;23.50;94.80
37570;DHT22;57786;54.376;10.232;2022-09-03T08:35:21;23.50;94.50
37570;DHT22;57786;54.376;10.232;2022-09-03T08:37:48;23.40;94.70
37570;DHT22;57786;54.376;10.232;2022-09-03T08:40:16;23.50;94.70
37570;DHT22;57786;54.376;10.232;2022-09-03T08:42:55;23.50;94.70
37570;DHT22;57786;54.376;10.232;2022-09-03T08:45:22;23.50;94.60
37570;DHT22;57786;54.376;10.232;2022-09-03T08:48:06;23.50;94.60
37570;DHT22;57786;54.376;10.232;2022-09-03T08:50:37;23.50;94.90
37570;DHT22;57786;54.376;10.232;2022-09-03T08:55:53;23.40;94.40
37570;DHT22;57786;54.376;10.232;2022-09-03T08:58:25;23.50;94.60
37570;DHT22;57786;54.376;10.232;2022-09-03T09:09:45;23.40;94.50
37570;DHT22;57786;54.376;10.232;2022-09-03T09:12:32;23.40;94.50
37570;DHT22;57786;54.376;10.232;2022-09-03T09:20:44;23.50;94.50
37570;DHT22;57786;54.376;10.232;2022-09-03T09:23:14;23.40;94.40
37570;DHT22;57786;54.376;10.232;2022-09-03T09:25:49;23.50;94.50
37570;DHT22;57786;54.376;10.232;2022-09-03T09:28:23;23.40;94.40
37570;DHT22;57786;54.376;10.232;2022-09-03T09:30:50;23.40;94.30
37570;DHT22;57786;54.376;10.232;2022-09-03T09:33:17;23.40;94.40
37570;DHT22;57786;54.376;10.232;2022-09-03T09:35:45;23.40;94.30
37570;DHT22;57786;54.376;10.232;2022-09-03T09:38:11;23.40;94.10
37570;DHT22;57786;54.376;10.232;2022-09-03T09:40:42;23.40;93.90
37570;DHT22;57786;54.376;10.232;2022-09-03T09:43:12;23.40;93.80
37570;DHT22;57786;54.376;10.232;2022-09-03T09:45:47;23.40;93.90
37570;DHT22;57786;54.376;10.232;2022-09-03T09:48:30;23.40;93.90
37570;DHT22;57786;54.376;10.232;2022-09-03T09:51:18;23.40;93.70
37570;DHT22;57786;54.376;10.232;2022-09-03T09:53:43;23.40;93.60
37570;DHT22;57786;54.376;10.232;2022-09-03T09:56:23;23.30;93.70
37570;DHT22;57786;54.376;10.232;2022-09-03T09:59:00;23.60;93.80
37570;DHT22;57786;54.376;10.232;2022-09-03T10:01:26;23.40;94.00
37570;DHT22;57786;54.376;10.232;2022-09-03T10:03:56;23.30;93.60
37570;DHT22;57786;54.376;10.232;2022-09-03T10:06:24;23.40;93.50
37570;DHT22;57786;54.376;10.232;2022-09-03T10:09:11;23.40;93.60
37570;DHT22;57786;54.376;10.232;2022-09-03T10:11:41;23.40;93.40
37570;DHT22;57786;54.376;10.232;2022-09-03T10:14:15;23.40;93.30
37570;DHT22;57786;54.376;10.232;2022-09-03T10:16:47;23.40;93.20
37570;DHT22;57786;54.376;10.232;2022-09-03T10:19:22;23.40;93.30
37570;DHT22;57786;54.376;10.232;2022-09-03T10:22:00;23.40;93.30
37570;DHT22;57786;54.376;10.232;2022-09-03T10:24:48;23.40;93.40
37570;DHT22;57786;54.376;10.232;2022-09-03T10:27:17;23.40;93.40
37570;DHT22;57786;54.376;10.232;2022-09-03T10:29:44;23.40;93.40
37570;DHT22;57786;54.376;10.232;2022-09-03T10:37:41;23.40;93.50
37570;DHT22;57786;54.376;10.232;2022-09-03T10:46:09;23.50;93.60
37570;DHT22;57786;54.376;10.232;2022-09-03T10:51:32;23.50;93.70
37570;DHT22;57786;54.376;10.232;2022-09-03T10:57:14;23.40;94.00
37570;DHT22;57786;54.376;10.232;2022-09-03T11:07:44;23.40;93.80
37570;DHT22;57786;54.376;10.232;2022-09-03T11:10:27;23.50;93.70
37570;DHT22;57786;54.376;10.232;2022-09-03T11:13:03;23.40;93.70
37570;DHT22;57786;54.376;10.232;2022-09-03T11:15:56;23.40;93.70
37570;DHT22;57786;54.376;10.232;2022-09-03T11:18:27;23.40;93.80
37570;DHT22;57786;54.376;10.232;2022-09-03T11:20:56;23.40;93.70
37570;DHT22;57786;54.376;10.232;2022-09-03T11:23:27;23.40;93.80
37570;DHT22;57786;54.376;10.232;2022-09-03T11:25:57;23.40;93.80
37570;DHT22;57786;54.376;10.232;2022-09-03T11:31:16;23.40;94.00
37570;DHT22;57786;54.376;10.232;2022-09-03T11:33:50;23.40;93.90
37570;DHT22;57786;54.376;10.232;2022-09-03T11:36:30;23.40;94.20
37570;DHT22;57786;54.376;10.232;2022-09-03T11:38:56;23.70;94.00
37570;DHT22;57786;54.376;10.232;2022-09-03T11:41:33;23.40;93.90
37570;DHT22;57786;54.376;10.232;2022-09-03T11:44:17;23.40;93.90
37570;DHT22;57786;54.376;10.232;2022-09-03T11:46:53;23.50;94.10
37570;DHT22;57786;54.376;10.232;2022-09-03T11:49:44;23.40;94.20
37570;DHT22;57786;54.376;10.232;2022-09-03T11:52:10;23.50;94.60
37570;DHT22;57786;54.376;10.232;2022-09-03T11:54:44;23.50;94.40
37570;DHT22;57786;54.376;10.232;2022-09-03T11:57:24;23.50;94.40
37570;DHT22;57786;54.376;10.232;2022-09-03T11:59:51;23.50;94.50
37570;DHT22;57786;54.376;10.232;2022-09-03T12:02:30;23.50;94.50
37570;DHT22;57786;54.376;10.232;2022-09-03T12:08:21;23.50;94.50
37570;DHT22;57786;54.376;10.232;2022-09-03T12:13:59;23.50;94.50
37570;DHT22;57786;54.376;10.232;2022-09-03T12:16:50;23.50;94.60
37570;DHT22;57786;54.376;10.232;2022-09-03T12:19:49;23.40;94.60
37570;DHT22;57786;54.376;10.232;2022-09-03T12:22:17;23.50;94.60
37570;DHT22;57786;54.376;10.232;2022-09-03T12:24:43;23.40;94.70
37570;DHT22;57786;54.376;10.232;2022-09-03T12:27:33;23.50;94.50
37570;DHT22;57786;54.376;10.232;2022-09-03T12:30:02;23.50;94.70
37570;DHT22;57786;54.376;10.232;2022-09-03T12:32:33;23.50;94.60
37570;DHT22;57786;54.376;10.232;2022-09-03T12:35:15;23.50;94.50
37570;DHT22;57786;54.376;10.232;2022-09-03T12:37:43;23.50;94.50
37570;DHT22;57786;54.376;10.232;2022-09-03T12:40:24;23.50;94.90
37570;DHT22;57786;54.376;10.232;2022-09-03T12:42:51;23.50;94.60
37570;DHT22;57786;54.376;10.232;2022-09-03T12:45:25;23.50;94.60
37570;DHT22;57786;54.376;10.232;2022-09-03T12:47:51;23.50;94.60
37570;DHT22;57786;54.376;10.232;2022-09-03T12:50:23;23.50;94.60
37570;DHT22;57786;54.376;10.232;2022-09-03T12:52:52;23.40;94.50
37570;DHT22;57786;54.376;10.232;2022-09-03T12:55:35;23.50;94.60
37570;DHT22;57786;54.376;10.232;2022-09-03T13:03:27;23.50;94.70
37570;DHT22;57786;54.376;10.232;2022-09-03T13:05:57;23.40;94.70
37570;DHT22;57786;54.376;10.232;2022-09-03T13:08:36;23.40;94.70
37570;DHT22;57786;54.376;10.232;2022-09-03T13:11:04;23.50;94.80
37570;DHT22;57786;54.376;10.232;2022-09-03T13:13:35;23.50;94.80
37570;DHT22;57786;54.376;10.232;2022-09-03T13:30:08;23.50;94.80
37570;DHT22;57786;54.376;10.232;2022-09-03T13:33:00;23.50;94.80
37570;DHT22;57786;54.376;10.232;2022-09-03T13:35:33;23.50;94.80
37570;DHT22;57786;54.376;10.232;2022-09-03T13:38:13;23.50;94.80
37570;DHT22;57786;54.376;10.232;2022-09-03T13:40:46;23.50;94.80
37570;DHT22;57786;54.376;10.232;2022-09-03T13:43:33;23.50;94.80
37570;DHT22;57786;54.376;10.232;2022-09-03T13:46:28;23.50;94.80
37570;DHT22;57786;54.376;10.232;2022-09-03T13:52:30;23.60;94.80
37570;DHT22;57786;54.376;10.232;2022-09-03T13:55:00;23.50;94.90
37570;DHT22;57786;54.376;10.232;2022-09-03T14:00:22;23.60;94.90
37570;DHT22;57786;54.376;10.232;2022-09-03T14:08:34;23.50;94.90
37570;DHT22;57786;54.376;10.232;2022-09-03T14:21:53;23.50;94.90
37570;DHT22;57786;54.376;10.232;2022-09-03T14:24:44;23.50;94.90
37570;DHT22;57786;54.376;10.232;2022-09-03T14:27:12;23.40;94.60
37570;DHT22;57786;54.376;10.232;2022-09-03T14:29:49;23.50;94.90
37570;DHT22;57786;54.376;10.232;2022-09-03T14:48:40;23.50;95.00
37570;DHT22;57786;54.376;10.232;2022-09-03T14:54:00;23.50;95.00
37570;DHT22;57786;54.376;10.232;2022-09-03T14:59:49;23.50;95.00
37570;DHT22;57786;54.376;10.232;2022-09-03T15:07:57;23.50;95.00
37570;DHT22;57786;54.376;10.232;2022-09-03T15:10:31;23.50;95.00
37570;DHT22;57786;54.376;10.232;2022-09-03T15:15:53;23.50;95.00
37570;DHT22;57786;54.376;10.232;2022-09-03T15:20:48;23.60;95.00
37570;DHT22;57786;54.376;10.232;2022-09-03T15:28:58;23.70;95.00
37570;DHT22;57786;54.376;10.232;2022-09-03T15:36:58;23.50;95.00
37570;DHT22;57786;54.376;10.232;2022-09-03T15:39:33;23.50;94.90
37570;DHT22;57786;54.376;10.232;2022-09-03T15:42:05;23.30;94.90
37570;DHT22;57786;54.376;10.232;2022-09-03T15:44:41;23.50;95.00
37570;DHT22;57786;54.376;10.232;2022-09-03T15:47:51;23.60;95.00
37570;DHT22;57786;54.376;10.232;2022-09-03T15:53:27;23.60;95.00
37570;DHT22;57786;54.376;10.232;2022-09-03T15:56:17;23.60;95.00
37570;DHT22;57786;54.376;10.232;2022-09-03T15:59:13;23.50;95.00
37570;DHT22;57786;54.376;10.232;2022-09-03T16:15:16;23.60;95.10
37570;DHT22;57786;54.376;10.232;2022-09-03T16:18:10;23.60;95.10
37570;DHT22;57786;54.376;10.232;2022-09-03T16:20:48;23.60;95.10
37570;DHT22;57786;54.376;10.232;2022-09-03T16:23:24;23.60;95.10
37570;DHT22;57786;54.376;10.232;2022-09-03T16:26:04;23.50;95.10
37570;DHT22;57786;54.376;10.232;2022-09-03T16:34:06;23.60;95.10
37570;DHT22;57786;54.376;10.232;2022-09-03T16:37:08;23.50;95.10
37570;DHT22;57786;54.376;10.232;2022-09-03T16:50:17;23.50;95.10
37570;DHT22;57786;54.376;10.232;2022-09-03T16:53:06;23.50;95.10
37570;DHT22;57786;54.376;10.232;2022-09-03T17:07:35;23.50;95.10
37570;DHT22;57786;54.376;10.232;2022-09-03T17:13:30;23.60;95.20
37570;DHT22;57786;54.376;10.232;2022-09-03T17:21:47;23.50;95.20
37570;DHT22;57786;54.376;10.232;2022-09-03T17:24:39;23.50;95.20
37570;DHT22;57786;54.376;10.232;2022-09-03T17:30:14;23.50;95.20
37570;DHT22;57786;54.376;10.232;2022-09-03T17:35:45;23.60;95.20
37570;DHT22;57786;54.376;10.232;2022-09-03T17:46:49;23.50;95.20
37570;DHT22;57786;54.376;10.232;2022-09-03T17:49:48;23.60;95.30
37570;DHT22;57786;54.376;10.232;2022-09-03T17:55:09;23.50;95.30
37570;DHT22;57786;54.376;10.232;2022-09-03T17:57:44;23.50;95.30
37570;DHT22;57786;54.376;10.232;2022-09-03T18:00:24;23.60;95.30
37570;DHT22;57786;54.376;10.232;2022-09-03T18:03:04;23.50;95.30
37570;DHT22;57786;54.376;10.232;2022-09-03T18:05:43;23.60;95.30
37570;DHT22;57786;54.376;10.232;2022-09-03T18:08:33;23.50;95.30
37570;DHT22;57786;54.376;10.232;2022-09-03T18:16:32;23.50;95.30
37570;DHT22;57786;54.376;10.232;2022-09-03T18:19:02;23.60;95.40
37570;DHT22;57786;54.376;10.232;2022-09-03T18:21:34;23.60;95.40
37570;DHT22;57786;54.376;10.232;2022-09-03T18:24:29;23.50;95.30
37570;DHT22;57786;54.376;10.232;2022-09-03T18:27:28;23.50;95.30
37570;DHT22;57786;54.376;10.232;2022-09-03T18:30:16;23.50;95.30
37570;DHT22;57786;54.376;10.232;2022-09-03T18:33:01;23.50;95.30
37570;DHT22;57786;54.376;10.232;2022-09-03T18:35:46;23.50;95.30
37570;DHT22;57786;54.376;10.232;2022-09-03T18:38:32;23.50;95.60
37570;DHT22;57786;54.376;10.232;2022-09-03T18:53:33;23.60;95.30
37570;DHT22;57786;54.376;10.232;2022-09-03T18:56:40;23.60;95.30
37570;DHT22;57786;54.376;10.232;2022-09-03T19:15:16;23.70;95.40
37570;DHT22;57786;54.376;10.232;2022-09-03T19:24:05;23.60;95.40
37570;DHT22;57786;54.376;10.232;2022-09-03T19:36:44;23.50;95.40
37570;DHT22;57786;54.376;10.232;2022-09-03T19:42:22;23.50;95.40
37570;DHT22;57786;54.376;10.232;2022-09-03T19:45:28;23.60;95.40
37570;DHT22;57786;54.376;10.232;2022-09-03T19:54:27;23.50;95.40
37570;DHT22;57786;54.376;10.232;2022-09-03T19:57:14;23.50;95.70
37570;DHT22;57786;54.376;10.232;2022-09-03T19:59:59;23.50;95.40
37570;DHT22;57786;54.376;10.232;2022-09-03T20:02:47;23.40;95.40
37570;DHT22;57786;54.376;10.232;2022-09-03T20:05:31;23.50;95.20
37570;DHT22;57786;54.376;10.232;2022-09-03T20:08:18;23.50;95.50
37570;DHT22;57786;54.376;10.232;2022-09-03T20:11:05;23.50;95.40
37570;DHT22;57786;54.376;10.232;2022-09-03T20:13:38;23.50;95.50
37570;DHT22;57786;54.376;10.232;2022-09-03T20:19:18;23.60;95.50
37570;DHT22;57786;54.376;10.232;2022-09-03T20:46:50;23.50;95.20
37570;DHT22;57786;54.376;10.232;2022-09-03T20:52:10;23.50;95.20
37570;DHT22;57786;54.376;10.232;2022-09-03T20:54:46;23.50;95.30
37570;DHT22;57786;54.376;10.232;2022-09-03T20:57:27;23.60;95.30
37570;DHT22;57786;54.376;10.232;2022-09-03T21:08:37;23.50;95.30
37570;DHT22;57786;54.376;10.232;2022-09-03T21:11:12;23.50;95.30
37570;DHT22;57786;54.376;10.232;2022-09-03T21:18:55;23.50;95.30
37570;DHT22;57786;54.376;10.232;2022-09-03T21:21:46;23.60;95.30
37570;DHT22;57786;54.376;10.232;2022-09-03T21:27:39;23.50;95.30
37570;DHT22;57786;54.376;10.232;2022-09-03T21:30:08;23.50;95.30
37570;DHT22;57786;54.376;10.232;2022-09-03T21:35:43;23.50;95.30
37570;DHT22;57786;54.376;10.232;2022-09-03T21:38:16;23.40;95.30
37570;DHT22;57786;54.376;10.232;2022-09-03T21:40:53;23.40;95.30
37570;DHT22;57786;54.376;10.232;2022-09-03T21:48:58;23.50;95.30
37570;DHT22;57786;54.376;10.232;2022-09-03T21:51:54;23.50;95.30
37570;DHT22;57786;54.376;10.232;2022-09-03T21:54:27;23.50;95.30
37570;DHT22;57786;54.376;10.232;2022-09-03T22:02:26;23.50;95.30
37570;DHT22;57786;54.376;10.232;2022-09-03T22:04:54;23.50;95.30
37570;DHT22;57786;54.376;10.232;2022-09-03T22:10:16;23.50;95.30
37570;DHT22;57786;54.376;10.232;2022-09-03T22:15:46;23.50;95.30
37570;DHT22;57786;54.376;10.232;2022-09-03T22:18:29;23.50;95.30
37570;DHT22;57786;54.376;10.232;2022-09-03T22:21:09;23.50;95.30
37570;DHT22;57786;54.376;10.232;2022-09-03T22:28:51;23.50;95.30
37570;DHT22;57786;54.376;10.232;2022-09-03T22:36:56;23.50;95.30
37570;DHT22;57786;54.376;10.232;2022-09-03T22:39:37;23.60;95.30
37570;DHT22;57786;54.376;10.232;2022-09-03T22:44:53;23.50;95.30
37570;DHT22;57786;54.376;10.232;2022-09-03T22:58:37;23.50;95.30
37570;DHT22;57786;54.376;10.232;2022-09-03T23:01:16;23.50;95.30